sensor_id;sensor_type;location;lat;lon;timestamp;temperature;humidity
5059;DHT22;2548;52.050;11.036;2022-09-09T00:00:20;13.30;99.90
5059;DHT22;2548;52.050;11.036;2022-09-09T00:02:54;13.30;99.90
5059;DHT22;2548;52.050;11.036;2022-09-09T00:05:31;13.40;99.90
5059;DHT22;2548;52.050;11.036;2022-09-09T00:08:00;13.40;99.90
5059;DHT22;2548;52.050;11.036;2022-09-09T00:10:32;13.50;99.90
5059;DHT22;2548;52.050;11.036;2022-09-09T00:13:05;13.50;99.90
5059;DHT22;2548;52.050;11.036;2022-09-09T00:15:43;13.50;99.90
5059;DHT22;2548;52.050;11.036;2022-09-09T00:18:20;13.50;99.90
5059;DHT22;2548;52.050;11.036;2022-09-09T00:20:56;13.50;99.90
5059;DHT22;2548;52.050;11.036;2022-09-09T00:23:25;13.50;99.90
5059;DHT22;2548;52.050;11.036;2022-09-09T00:26:02;13.60;99.90
5059;DHT22;2548;52.050;11.036;2022-09-09T00:28:32;13.60;99.90
5059;DHT22;2548;52.050;11.036;2022-09-09T00:31:12;13.60;99.90
5059;DHT22;2548;52.050;11.036;2022-09-09T00:33:41;13.70;99.90
5059;DHT22;2548;52.050;11.036;2022-09-09T00:36:13;13.60;99.90
5059;DHT22;2548;52.050;11.036;2022-09-09T00:38:44;13.60;99.90
5059;DHT22;2548;52.050;11.036;2022-09-09T00:41:19;13.50;99.90
5059;DHT22;2548;52.050;11.036;2022-09-09T00:43:56;13.40;99.90
5059;DHT22;2548;52.050;11.036;2022-09-09T00:46:39;13.40;99.90
5059;DHT22;2548;52.050;11.036;2022-09-09T00:49:18;13.30;99.90
5059;DHT22;2548;52.050;11.036;2022-09-09T00:51:56;13.30;99.90
5059;DHT22;2548;52.050;11.036;2022-09-09T00:54:36;13.20;99.90
5059;DHT22;2548;52.050;11.036;2022-09-09T00:57:13;13.10;99.90
5059;DHT22;2548;52.050;11.036;2022-09-09T00:59:47;13.10;99.90
5059;DHT22;2548;52.050;11.036;2022-09-09T01:02:26;13.10;99.90
5059;DHT22;2548;52.050;11.036;2022-09-09T01:05:02;13.10;99.90
5059;DHT22;2548;52.050;11.036;2022-09-09T01:07:32;13.10;99.90
5059;DHT22;2548;52.050;11.036;2022-09-09T01:10:03;13.10;99.90
5059;DHT22;2548;52.050;11.036;2022-09-09T01:12:38;13.20;99.90
5059;DHT22;2548;52.050;11.036;2022-09-09T01:15:10;13.20;99.90
5059;DHT22;2548;52.050;11.036;2022-09-09T01:17:53;13.20;99.90
5059;DHT22;2548;52.050;11.036;2022-09-09T01:20:24;13.20;99.90
5059;DHT22;2548;52.050;11.036;2022-09-09T01:23:14;13.20;99.90
5059;DHT22;2548;52.050;11.036;2022-09-09T01:26:17;13.20;99.90
5059;DHT22;2548;52.050;11.036;2022-09-09T01:28:47;13.20;99.90
5059;DHT22;2548;52.050;11.036;2022-09-09T01:31:19;13.20;99.90
5059;DHT22;2548;52.050;11.036;2022-09-09T01:33:48;13.30;99.90
5059;DHT22;2548;52.050;11.036;2022-09-09T01:36:21;13.40;99.90
5059;DHT22;2548;52.050;11.036;2022-09-09T01:38:52;13.40;99.90
5059;DHT22;2548;52.050;11.036;2022-09-09T01:41:21;13.30;99.90
5059;DHT22;2548;52.050;11.036;2022-09-09T01:44:05;13.30;99.90
5059;DHT22;2548;52.050;11.036;2022-09-09T01:46:34;13.30;99.90
5059;DHT22;2548;52.050;11.036;2022-09-09T01:49:05;13.20;99.90
5059;DHT22;2548;52.050;11.036;2022-09-09T01:51:33;13.20;99.90
5059;DHT22;2548;52.050;11.036;2022-09-09T01:54:05;13.10;99.90
5059;DHT22;2548;52.050;11.036;2022-09-09T01:56:42;13.10;99.90
5059;DHT22;2548;52.050;11.036;2022-09-09T01:59:27;13.10;99.90
5059;DHT22;2548;52.050;11.036;2022-09-09T02:02:09;13.00;99.90
5059;DHT22;2548;52.050;11.036;2022-09-09T02:04:40;12.90;99.90
5059;DHT22;2548;52.050;11.036;2022-09-09T02:07:20;12.90;99.90
5059;DHT22;2548;52.050;11.036;2022-09-09T02:09:58;12.90;99.90
5059;DHT22;2548;52.050;11.036;2022-09-09T02:12:30;12.80;99.90
5059;DHT22;2548;52.050;11.036;2022-09-09T02:15:03;12.80;99.90
5059;DHT22;2548;52.050;11.036;2022-09-09T02:17:41;12.80;99.90
5059;DHT22;2548;52.050;11.036;2022-09-09T02:20:14;12.80;99.90
5059;DHT22;2548;52.050;11.036;2022-09-09T02:22:49;12.80;99.90
5059;DHT22;2548;52.050;11.036;2022-09-09T02:25:22;12.90;99.90
5059;DHT22;2548;52.050;11.036;2022-09-09T02:27:53;12.80;99.90
5059;DHT22;2548;52.050;11.036;2022-09-09T02:30:21;12.80;99.90
5059;DHT22;2548;52.050;11.036;2022-09-09T02:32:55;12.80;99.90
5059;DHT22;2548;52.050;11.036;2022-09-09T02:35:31;12.80;99.90
5059;DHT22;2548;52.050;11.036;2022-09-09T02:38:02;12.80;99.90
5059;DHT22;2548;52.050;11.036;2022-09-09T02:40:33;12.80;99.90
5059;DHT22;2548;52.050;11.036;2022-09-09T02:43:04;12.80;99.90
5059;DHT22;2548;52.050;11.036;2022-09-09T02:45:38;12.80;99.90
5059;DHT22;2548;52.050;11.036;2022-09-09T02:48:14;12.70;99.90
5059;DHT22;2548;52.050;11.036;2022-09-09T02:50:50;12.70;99.90
5059;DHT22;2548;52.050;11.036;2022-09-09T02:53:28;12.70;99.90
5059;DHT22;2548;52.050;11.036;2022-09-09T02:55:59;12.70;99.90
5059;DHT22;2548;52.050;11.036;2022-09-09T02:58:35;12.70;99.90
5059;DHT22;2548;52.050;11.036;2022-09-09T03:01:05;12.70;99.90
5059;DHT22;2548;52.050;11.036;2022-09-09T03:03:35;12.70;99.90
5059;DHT22;2548;52.050;11.036;2022-09-09T03:06:07;12.70;99.90
5059;DHT22;2548;52.050;11.036;2022-09-09T03:08:34;12.70;99.90
5059;DHT22;2548;52.050;11.036;2022-09-09T03:11:02;12.70;99.90
5059;DHT22;2548;52.050;11.036;2022-09-09T03:13:32;12.70;99.90
5059;DHT22;2548;52.050;11.036;2022-09-09T03:16:02;12.80;99.90
5059;DHT22;2548;52.050;11.036;2022-09-09T03:18:33;12.80;99.90
5059;DHT22;2548;52.050;11.036;2022-09-09T03:21:00;12.90;99.90
5059;DHT22;2548;52.050;11.036;2022-09-09T03:23:29;12.90;99.90
5059;DHT22;2548;52.050;11.036;2022-09-09T03:26:00;12.90;99.90
5059;DHT22;2548;52.050;11.036;2022-09-09T03:28:37;12.90;99.90
5059;DHT22;2548;52.050;11.036;2022-09-09T03:31:06;12.90;99.90
5059;DHT22;2548;52.050;11.036;2022-09-09T03:33:39;12.90;99.90
5059;DHT22;2548;52.050;11.036;2022-09-09T03:36:08;12.90;99.90
5059;DHT22;2548;52.050;11.036;2022-09-09T03:38:36;12.90;99.90
5059;DHT22;2548;52.050;11.036;2022-09-09T03:41:04;12.90;99.90
5059;DHT22;2548;52.050;11.036;2022-09-09T03:43:34;12.90;99.90
5059;DHT22;2548;52.050;11.036;2022-09-09T03:46:02;12.90;99.90
5059;DHT22;2548;52.050;11.036;2022-09-09T03:48:31;12.90;99.90
5059;DHT22;2548;52.050;11.036;2022-09-09T03:50:59;12.90;99.90
5059;DHT22;2548;52.050;11.036;2022-09-09T03:53:30;12.80;99.90
5059;DHT22;2548;52.050;11.036;2022-09-09T03:55:58;12.80;99.90
5059;DHT22;2548;52.050;11.036;2022-09-09T03:58:27;12.80;99.90
5059;DHT22;2548;52.050;11.036;2022-09-09T04:01:03;12.80;99.90
5059;DHT22;2548;52.050;11.036;2022-09-09T04:03:32;12.80;99.90
5059;DHT22;2548;52.050;11.036;2022-09-09T04:06:02;12.80;99.90
5059;DHT22;2548;52.050;11.036;2022-09-09T04:08:32;12.80;99.90
5059;DHT22;2548;52.050;11.036;2022-09-09T04:11:00;12.80;99.90
5059;DHT22;2548;52.050;11.036;2022-09-09T04:13:31;12.90;99.90
5059;DHT22;2548;52.050;11.036;2022-09-09T04:16:02;12.90;99.90
5059;DHT22;2548;52.050;11.036;2022-09-09T04:18:33;12.90;99.90
5059;DHT22;2548;52.050;11.036;2022-09-09T04:21:01;12.90;99.90
5059;DHT22;2548;52.050;11.036;2022-09-09T04:23:30;12.90;99.90
5059;DHT22;2548;52.050;11.036;2022-09-09T04:26:00;12.90;99.90
5059;DHT22;2548;52.050;11.036;2022-09-09T04:28:29;13.00;99.90
5059;DHT22;2548;52.050;11.036;2022-09-09T04:31:04;12.90;99.90
5059;DHT22;2548;52.050;11.036;2022-09-09T04:33:34;12.90;99.90
5059;DHT22;2548;52.050;11.036;2022-09-09T04:36:02;12.90;99.90
5059;DHT22;2548;52.050;11.036;2022-09-09T04:38:30;13.00;99.90
5059;DHT22;2548;52.050;11.036;2022-09-09T04:40:57;13.00;99.90
5059;DHT22;2548;52.050;11.036;2022-09-09T04:43:25;13.00;99.90
5059;DHT22;2548;52.050;11.036;2022-09-09T04:45:54;13.00;99.90
5059;DHT22;2548;52.050;11.036;2022-09-09T04:48:24;13.00;99.90
5059;DHT22;2548;52.050;11.036;2022-09-09T04:50:58;13.00;99.90
5059;DHT22;2548;52.050;11.036;2022-09-09T04:53:26;13.00;99.90
5059;DHT22;2548;52.050;11.036;2022-09-09T04:56:01;13.00;99.90
5059;DHT22;2548;52.050;11.036;2022-09-09T04:58:30;13.10;99.90
5059;DHT22;2548;52.050;11.036;2022-09-09T05:01:06;13.10;99.90
5059;DHT22;2548;52.050;11.036;2022-09-09T05:03:35;13.20;99.90
5059;DHT22;2548;52.050;11.036;2022-09-09T05:06:09;13.20;99.90
5059;DHT22;2548;52.050;11.036;2022-09-09T05:08:38;13.20;99.90
5059;DHT22;2548;52.050;11.036;2022-09-09T05:11:16;13.20;99.90
5059;DHT22;2548;52.050;11.036;2022-09-09T05:13:44;13.20;99.90
5059;DHT22;2548;52.050;11.036;2022-09-09T05:16:12;13.20;99.90
5059;DHT22;2548;52.050;11.036;2022-09-09T05:18:40;13.20;99.90
5059;DHT22;2548;52.050;11.036;2022-09-09T05:21:10;13.20;99.90
5059;DHT22;2548;52.050;11.036;2022-09-09T05:23:38;13.20;99.90
5059;DHT22;2548;52.050;11.036;2022-09-09T05:26:06;13.10;99.90
5059;DHT22;2548;52.050;11.036;2022-09-09T05:28:35;13.10;99.90
5059;DHT22;2548;52.050;11.036;2022-09-09T05:31:04;13.10;99.90
5059;DHT22;2548;52.050;11.036;2022-09-09T05:33:34;13.10;99.90
5059;DHT22;2548;52.050;11.036;2022-09-09T05:36:04;13.10;99.90
5059;DHT22;2548;52.050;11.036;2022-09-09T05:38:35;13.10;99.90
5059;DHT22;2548;52.050;11.036;2022-09-09T05:41:04;13.10;99.90
5059;DHT22;2548;52.050;11.036;2022-09-09T05:43:32;13.20;99.90
5059;DHT22;2548;52.050;11.036;2022-09-09T05:46:03;13.30;99.90
5059;DHT22;2548;52.050;11.036;2022-09-09T05:48:33;13.30;99.90
5059;DHT22;2548;52.050;11.036;2022-09-09T05:51:02;13.40;99.90
5059;DHT22;2548;52.050;11.036;2022-09-09T05:53:31;13.50;99.90
5059;DHT22;2548;52.050;11.036;2022-09-09T05:56:03;13.50;99.90
5059;DHT22;2548;52.050;11.036;2022-09-09T05:58:33;13.60;99.90
5059;DHT22;2548;52.050;11.036;2022-09-09T06:01:05;13.70;99.90
5059;DHT22;2548;52.050;11.036;2022-09-09T06:03:33;13.70;99.90
5059;DHT22;2548;52.050;11.036;2022-09-09T06:06:02;13.80;99.90
5059;DHT22;2548;52.050;11.036;2022-09-09T06:08:32;13.90;99.90
5059;DHT22;2548;52.050;11.036;2022-09-09T06:11:05;14.00;99.90
5059;DHT22;2548;52.050;11.036;2022-09-09T06:13:33;14.00;99.90
5059;DHT22;2548;52.050;11.036;2022-09-09T06:16:01;14.10;99.90
5059;DHT22;2548;52.050;11.036;2022-09-09T06:18:29;14.20;99.90
5059;DHT22;2548;52.050;11.036;2022-09-09T06:20:57;14.20;99.90
5059;DHT22;2548;52.050;11.036;2022-09-09T06:23:27;14.30;99.90
5059;DHT22;2548;52.050;11.036;2022-09-09T06:26:01;14.30;99.90
5059;DHT22;2548;52.050;11.036;2022-09-09T06:28:30;14.40;99.90
5059;DHT22;2548;52.050;11.036;2022-09-09T06:30:58;14.50;99.90
5059;DHT22;2548;52.050;11.036;2022-09-09T06:33:26;14.60;99.90
5059;DHT22;2548;52.050;11.036;2022-09-09T06:35:54;14.80;99.90
5059;DHT22;2548;52.050;11.036;2022-09-09T06:38:23;15.00;99.90
5059;DHT22;2548;52.050;11.036;2022-09-09T06:40:52;15.10;99.90
5059;DHT22;2548;52.050;11.036;2022-09-09T06:43:20;15.20;99.90
5059;DHT22;2548;52.050;11.036;2022-09-09T06:45:55;15.30;99.90
5059;DHT22;2548;52.050;11.036;2022-09-09T06:48:23;15.40;99.90
5059;DHT22;2548;52.050;11.036;2022-09-09T06:50:59;15.40;99.90
5059;DHT22;2548;52.050;11.036;2022-09-09T06:53:27;15.50;99.90
5059;DHT22;2548;52.050;11.036;2022-09-09T06:55:55;15.50;99.90
5059;DHT22;2548;52.050;11.036;2022-09-09T06:58:22;15.60;99.90
5059;DHT22;2548;52.050;11.036;2022-09-09T07:00:51;15.60;99.90
5059;DHT22;2548;52.050;11.036;2022-09-09T07:03:20;15.70;99.90
5059;DHT22;2548;52.050;11.036;2022-09-09T07:05:54;15.70;99.90
5059;DHT22;2548;52.050;11.036;2022-09-09T07:08:23;15.70;99.90
5059;DHT22;2548;52.050;11.036;2022-09-09T07:10:51;15.80;99.90
5059;DHT22;2548;52.050;11.036;2022-09-09T07:13:23;15.80;99.90
5059;DHT22;2548;52.050;11.036;2022-09-09T07:15:51;15.80;99.90
5059;DHT22;2548;52.050;11.036;2022-09-09T07:18:20;15.90;99.90
5059;DHT22;2548;52.050;11.036;2022-09-09T07:20:53;15.80;99.90
5059;DHT22;2548;52.050;11.036;2022-09-09T07:23:23;15.90;99.90
5059;DHT22;2548;52.050;11.036;2022-09-09T07:25:50;15.90;99.90
5059;DHT22;2548;52.050;11.036;2022-09-09T07:28:19;16.00;99.90
5059;DHT22;2548;52.050;11.036;2022-09-09T07:30:53;16.00;99.90
5059;DHT22;2548;52.050;11.036;2022-09-09T07:33:22;16.10;99.90
5059;DHT22;2548;52.050;11.036;2022-09-09T07:35:51;16.30;99.90
5059;DHT22;2548;52.050;11.036;2022-09-09T07:38:19;16.60;99.90
5059;DHT22;2548;52.050;11.036;2022-09-09T07:40:48;16.80;99.90
5059;DHT22;2548;52.050;11.036;2022-09-09T07:43:15;17.00;99.90
5059;DHT22;2548;52.050;11.036;2022-09-09T07:45:43;17.30;99.90
5059;DHT22;2548;52.050;11.036;2022-09-09T07:48:10;17.50;99.90
5059;DHT22;2548;52.050;11.036;2022-09-09T07:50:39;17.70;99.90
5059;DHT22;2548;52.050;11.036;2022-09-09T07:53:08;17.80;99.90
5059;DHT22;2548;52.050;11.036;2022-09-09T07:55:35;17.90;99.90
5059;DHT22;2548;52.050;11.036;2022-09-09T07:58:03;17.90;99.90
5059;DHT22;2548;52.050;11.036;2022-09-09T08:00:30;17.90;99.90
5059;DHT22;2548;52.050;11.036;2022-09-09T08:03:00;17.90;99.90
5059;DHT22;2548;52.050;11.036;2022-09-09T08:05:28;18.10;99.90
5059;DHT22;2548;52.050;11.036;2022-09-09T08:07:56;18.20;99.90
5059;DHT22;2548;52.050;11.036;2022-09-09T08:10:24;18.40;99.90
5059;DHT22;2548;52.050;11.036;2022-09-09T08:12:54;18.50;99.90
5059;DHT22;2548;52.050;11.036;2022-09-09T08:15:21;18.60;99.90
5059;DHT22;2548;52.050;11.036;2022-09-09T08:17:48;18.60;99.90
5059;DHT22;2548;52.050;11.036;2022-09-09T08:20:16;18.70;99.90
5059;DHT22;2548;52.050;11.036;2022-09-09T08:22:44;18.70;99.90
5059;DHT22;2548;52.050;11.036;2022-09-09T08:25:14;18.80;99.90
5059;DHT22;2548;52.050;11.036;2022-09-09T08:27:41;18.80;99.90
5059;DHT22;2548;52.050;11.036;2022-09-09T08:30:10;18.90;99.90
5059;DHT22;2548;52.050;11.036;2022-09-09T08:32:37;19.00;99.90
5059;DHT22;2548;52.050;11.036;2022-09-09T08:35:06;19.20;99.90
5059;DHT22;2548;52.050;11.036;2022-09-09T08:37:33;19.20;99.90
5059;DHT22;2548;52.050;11.036;2022-09-09T08:40:01;19.30;99.90
5059;DHT22;2548;52.050;11.036;2022-09-09T08:42:40;19.40;99.90
5059;DHT22;2548;52.050;11.036;2022-09-09T08:45:19;19.40;99.90
5059;DHT22;2548;52.050;11.036;2022-09-09T08:48:00;19.40;99.90
5059;DHT22;2548;52.050;11.036;2022-09-09T08:50:32;19.40;99.90
5059;DHT22;2548;52.050;11.036;2022-09-09T08:53:15;19.40;99.90
5059;DHT22;2548;52.050;11.036;2022-09-09T08:55:46;19.30;99.90
5059;DHT22;2548;52.050;11.036;2022-09-09T08:58:19;19.30;99.90
5059;DHT22;2548;52.050;11.036;2022-09-09T09:01:01;19.40;99.90
5059;DHT22;2548;52.050;11.036;2022-09-09T09:03:38;19.40;99.90
5059;DHT22;2548;52.050;11.036;2022-09-09T09:06:23;19.40;99.90
5059;DHT22;2548;52.050;11.036;2022-09-09T09:09:01;19.40;99.90
5059;DHT22;2548;52.050;11.036;2022-09-09T09:11:35;19.50;99.90
5059;DHT22;2548;52.050;11.036;2022-09-09T09:14:09;19.60;99.90
5059;DHT22;2548;52.050;11.036;2022-09-09T09:16:43;19.70;99.90
5059;DHT22;2548;52.050;11.036;2022-09-09T09:19:15;19.70;99.90
5059;DHT22;2548;52.050;11.036;2022-09-09T09:21:49;19.90;99.90
5059;DHT22;2548;52.050;11.036;2022-09-09T09:24:20;20.10;99.90
5059;DHT22;2548;52.050;11.036;2022-09-09T09:26:48;20.30;99.90
5059;DHT22;2548;52.050;11.036;2022-09-09T09:29:19;20.50;99.90
5059;DHT22;2548;52.050;11.036;2022-09-09T09:31:52;20.60;99.90
5059;DHT22;2548;52.050;11.036;2022-09-09T09:34:23;20.70;99.90
5059;DHT22;2548;52.050;11.036;2022-09-09T09:36:54;20.60;99.90
5059;DHT22;2548;52.050;11.036;2022-09-09T09:39:23;20.50;99.90
5059;DHT22;2548;52.050;11.036;2022-09-09T09:41:52;20.50;99.90
5059;DHT22;2548;52.050;11.036;2022-09-09T09:44:26;20.60;99.90
5059;DHT22;2548;52.050;11.036;2022-09-09T09:47:06;20.60;99.90
5059;DHT22;2548;52.050;11.036;2022-09-09T09:49:34;20.80;99.90
5059;DHT22;2548;52.050;11.036;2022-09-09T09:52:02;20.90;99.90
5059;DHT22;2548;52.050;11.036;2022-09-09T09:54:33;21.10;99.90
5059;DHT22;2548;52.050;11.036;2022-09-09T09:57:11;21.30;99.90
5059;DHT22;2548;52.050;11.036;2022-09-09T09:59:42;21.50;99.90
5059;DHT22;2548;52.050;11.036;2022-09-09T10:02:25;21.50;99.90
5059;DHT22;2548;52.050;11.036;2022-09-09T10:05:13;21.40;99.90
5059;DHT22;2548;52.050;11.036;2022-09-09T10:07:44;21.20;99.90
5059;DHT22;2548;52.050;11.036;2022-09-09T10:10:16;21.10;99.90
5059;DHT22;2548;52.050;11.036;2022-09-09T10:12:56;21.20;99.90
5059;DHT22;2548;52.050;11.036;2022-09-09T10:15:36;21.20;99.90
5059;DHT22;2548;52.050;11.036;2022-09-09T10:18:24;21.20;99.90
5059;DHT22;2548;52.050;11.036;2022-09-09T10:20:58;21.30;99.90
5059;DHT22;2548;52.050;11.036;2022-09-09T10:23:43;21.30;99.90
5059;DHT22;2548;52.050;11.036;2022-09-09T10:26:25;21.30;99.90
5059;DHT22;2548;52.050;11.036;2022-09-09T10:29:11;21.20;99.90
5059;DHT22;2548;52.050;11.036;2022-09-09T10:31:48;21.10;99.90
5059;DHT22;2548;52.050;11.036;2022-09-09T10:34:34;21.00;99.90
5059;DHT22;2548;52.050;11.036;2022-09-09T10:37:18;21.00;99.90
5059;DHT22;2548;52.050;11.036;2022-09-09T10:39:54;21.20;99.90
5059;DHT22;2548;52.050;11.036;2022-09-09T10:42:31;21.30;99.90
5059;DHT22;2548;52.050;11.036;2022-09-09T10:45:10;21.40;99.90
5059;DHT22;2548;52.050;11.036;2022-09-09T10:48:07;21.40;99.90
5059;DHT22;2548;52.050;11.036;2022-09-09T10:50:48;21.40;99.90
5059;DHT22;2548;52.050;11.036;2022-09-09T10:53:24;21.40;99.90
5059;DHT22;2548;52.050;11.036;2022-09-09T10:55:59;21.40;99.90
5059;DHT22;2548;52.050;11.036;2022-09-09T10:58:31;21.50;99.90
5059;DHT22;2548;52.050;11.036;2022-09-09T11:01:09;21.50;99.90
5059;DHT22;2548;52.050;11.036;2022-09-09T11:03:42;21.80;99.90
5059;DHT22;2548;52.050;11.036;2022-09-09T11:06:14;22.10;99.90
5059;DHT22;2548;52.050;11.036;2022-09-09T11:08:43;22.20;99.90
5059;DHT22;2548;52.050;11.036;2022-09-09T11:11:13;22.10;99.90
5059;DHT22;2548;52.050;11.036;2022-09-09T11:13:47;21.90;99.90
5059;DHT22;2548;52.050;11.036;2022-09-09T11:16:24;21.70;99.90
5059;DHT22;2548;52.050;11.036;2022-09-09T11:18:58;21.50;99.90
5059;DHT22;2548;52.050;11.036;2022-09-09T11:21:29;21.40;99.90
5059;DHT22;2548;52.050;11.036;2022-09-09T11:24:00;21.20;99.90
5059;DHT22;2548;52.050;11.036;2022-09-09T11:26:33;21.10;99.90
5059;DHT22;2548;52.050;11.036;2022-09-09T11:29:25;21.00;99.90
5059;DHT22;2548;52.050;11.036;2022-09-09T11:32:07;20.90;99.90
5059;DHT22;2548;52.050;11.036;2022-09-09T11:34:48;20.80;99.90
5059;DHT22;2548;52.050;11.036;2022-09-09T11:37:40;20.80;99.90
5059;DHT22;2548;52.050;11.036;2022-09-09T11:40:19;20.70;99.90
5059;DHT22;2548;52.050;11.036;2022-09-09T11:42:49;20.70;99.90
5059;DHT22;2548;52.050;11.036;2022-09-09T11:45:28;20.60;99.90
5059;DHT22;2548;52.050;11.036;2022-09-09T11:47:57;20.60;99.90
5059;DHT22;2548;52.050;11.036;2022-09-09T11:50:35;20.60;99.90
5059;DHT22;2548;52.050;11.036;2022-09-09T11:53:06;20.50;99.90
5059;DHT22;2548;52.050;11.036;2022-09-09T11:55:42;20.40;99.90
5059;DHT22;2548;52.050;11.036;2022-09-09T11:58:16;20.40;99.90
5059;DHT22;2548;52.050;11.036;2022-09-09T12:00:45;20.40;99.90
5059;DHT22;2548;52.050;11.036;2022-09-09T12:03:31;20.40;99.90
5059;DHT22;2548;52.050;11.036;2022-09-09T12:06:13;20.40;99.90
5059;DHT22;2548;52.050;11.036;2022-09-09T12:08:43;20.40;99.90
5059;DHT22;2548;52.050;11.036;2022-09-09T12:11:11;20.50;99.90
5059;DHT22;2548;52.050;11.036;2022-09-09T12:13:39;20.50;99.90
5059;DHT22;2548;52.050;11.036;2022-09-09T12:16:29;20.50;99.90
5059;DHT22;2548;52.050;11.036;2022-09-09T12:19:12;20.40;99.90
5059;DHT22;2548;52.050;11.036;2022-09-09T12:21:48;20.70;99.90
5059;DHT22;2548;52.050;11.036;2022-09-09T12:24:22;21.00;99.90
5059;DHT22;2548;52.050;11.036;2022-09-09T12:26:58;21.50;99.90
5059;DHT22;2548;52.050;11.036;2022-09-09T12:29:31;22.00;99.90
5059;DHT22;2548;52.050;11.036;2022-09-09T12:32:07;22.30;99.90
5059;DHT22;2548;52.050;11.036;2022-09-09T12:34:39;22.50;99.90
5059;DHT22;2548;52.050;11.036;2022-09-09T12:37:15;22.70;99.90
5059;DHT22;2548;52.050;11.036;2022-09-09T12:39:47;23.00;99.90
5059;DHT22;2548;52.050;11.036;2022-09-09T12:42:18;23.00;99.90
5059;DHT22;2548;52.050;11.036;2022-09-09T12:44:56;23.20;99.90
5059;DHT22;2548;52.050;11.036;2022-09-09T12:47:28;23.20;99.90
5059;DHT22;2548;52.050;11.036;2022-09-09T12:49:56;23.30;99.90
5059;DHT22;2548;52.050;11.036;2022-09-09T12:52:28;23.40;99.90
5059;DHT22;2548;52.050;11.036;2022-09-09T12:55:00;23.50;99.90
5059;DHT22;2548;52.050;11.036;2022-09-09T12:57:33;23.50;99.90
5059;DHT22;2548;52.050;11.036;2022-09-09T13:00:08;23.50;99.90
5059;DHT22;2548;52.050;11.036;2022-09-09T13:02:46;23.60;99.90
5059;DHT22;2548;52.050;11.036;2022-09-09T13:05:18;23.70;99.90
5059;DHT22;2548;52.050;11.036;2022-09-09T13:07:47;23.80;99.90
5059;DHT22;2548;52.050;11.036;2022-09-09T13:10:21;24.10;99.90
5059;DHT22;2548;52.050;11.036;2022-09-09T13:12:50;24.20;99.90
5059;DHT22;2548;52.050;11.036;2022-09-09T13:15:21;24.30;99.90
5059;DHT22;2548;52.050;11.036;2022-09-09T13:17:54;24.40;99.90
5059;DHT22;2548;52.050;11.036;2022-09-09T13:20:22;24.10;99.90
5059;DHT22;2548;52.050;11.036;2022-09-09T13:22:53;23.70;99.90
5059;DHT22;2548;52.050;11.036;2022-09-09T13:25:24;23.50;99.90
5059;DHT22;2548;52.050;11.036;2022-09-09T13:27:56;23.30;99.90
5059;DHT22;2548;52.050;11.036;2022-09-09T13:30:26;23.40;99.90
5059;DHT22;2548;52.050;11.036;2022-09-09T13:33:01;23.50;99.90
5059;DHT22;2548;52.050;11.036;2022-09-09T13:35:29;23.60;99.90
5059;DHT22;2548;52.050;11.036;2022-09-09T13:37:58;23.80;99.90
5059;DHT22;2548;52.050;11.036;2022-09-09T13:40:26;23.90;99.90
5059;DHT22;2548;52.050;11.036;2022-09-09T13:42:55;24.00;99.90
5059;DHT22;2548;52.050;11.036;2022-09-09T13:45:25;24.00;99.90
5059;DHT22;2548;52.050;11.036;2022-09-09T13:47:53;24.00;99.90
5059;DHT22;2548;52.050;11.036;2022-09-09T13:50:23;24.00;99.90
5059;DHT22;2548;52.050;11.036;2022-09-09T13:52:52;24.00;99.90
5059;DHT22;2548;52.050;11.036;2022-09-09T13:55:23;24.10;99.90
5059;DHT22;2548;52.050;11.036;2022-09-09T13:57:51;24.10;99.90
5059;DHT22;2548;52.050;11.036;2022-09-09T14:00:19;24.30;99.90
5059;DHT22;2548;52.050;11.036;2022-09-09T14:02:47;24.30;99.80
5059;DHT22;2548;52.050;11.036;2022-09-09T14:05:14;24.30;99.80
5059;DHT22;2548;52.050;11.036;2022-09-09T14:07:42;24.20;99.90
5059;DHT22;2548;52.050;11.036;2022-09-09T14:10:11;24.30;99.90
5059;DHT22;2548;52.050;11.036;2022-09-09T14:12:40;24.20;99.90
5059;DHT22;2548;52.050;11.036;2022-09-09T14:15:10;24.30;99.90
5059;DHT22;2548;52.050;11.036;2022-09-09T14:17:38;24.20;99.90
5059;DHT22;2548;52.050;11.036;2022-09-09T14:20:07;24.30;99.90
5059;DHT22;2548;52.050;11.036;2022-09-09T14:22:35;24.40;99.90
5059;DHT22;2548;52.050;11.036;2022-09-09T14:25:04;24.50;99.90
5059;DHT22;2548;52.050;11.036;2022-09-09T14:27:32;24.60;99.90
5059;DHT22;2548;52.050;11.036;2022-09-09T14:30:00;24.60;99.90
5059;DHT22;2548;52.050;11.036;2022-09-09T14:32:28;24.60;99.90
5059;DHT22;2548;52.050;11.036;2022-09-09T14:34:55;24.60;99.90
5059;DHT22;2548;52.050;11.036;2022-09-09T14:37:23;24.60;99.90
5059;DHT22;2548;52.050;11.036;2022-09-09T14:39:51;24.70;99.90
5059;DHT22;2548;52.050;11.036;2022-09-09T14:42:19;24.60;99.90
5059;DHT22;2548;52.050;11.036;2022-09-09T14:44:48;24.60;99.90
5059;DHT22;2548;52.050;11.036;2022-09-09T14:47:16;24.60;99.90
5059;DHT22;2548;52.050;11.036;2022-09-09T14:49:44;24.70;99.90
5059;DHT22;2548;52.050;11.036;2022-09-09T14:52:11;24.50;98.90
5059;DHT22;2548;52.050;11.036;2022-09-09T14:54:39;24.40;98.90
5059;DHT22;2548;52.050;11.036;2022-09-09T14:57:06;24.40;99.30
5059;DHT22;2548;52.050;11.036;2022-09-09T14:59:34;24.40;99.30
5059;DHT22;2548;52.050;11.036;2022-09-09T15:02:01;24.40;99.40
5059;DHT22;2548;52.050;11.036;2022-09-09T15:04:31;24.40;99.00
5059;DHT22;2548;52.050;11.036;2022-09-09T15:06:58;24.40;99.30
5059;DHT22;2548;52.050;11.036;2022-09-09T15:09:26;24.30;99.10
5059;DHT22;2548;52.050;11.036;2022-09-09T15:11:53;24.30;99.50
5059;DHT22;2548;52.050;11.036;2022-09-09T15:14:21;24.30;99.90
5059;DHT22;2548;52.050;11.036;2022-09-09T15:16:48;24.30;99.90
5059;DHT22;2548;52.050;11.036;2022-09-09T15:19:15;24.40;99.90
5059;DHT22;2548;52.050;11.036;2022-09-09T15:21:44;24.50;99.90
5059;DHT22;2548;52.050;11.036;2022-09-09T15:24:11;24.40;99.90
5059;DHT22;2548;52.050;11.036;2022-09-09T15:26:39;24.20;99.90
5059;DHT22;2548;52.050;11.036;2022-09-09T15:29:07;24.20;99.90
5059;DHT22;2548;52.050;11.036;2022-09-09T15:31:35;24.20;99.90
5059;DHT22;2548;52.050;11.036;2022-09-09T15:34:04;24.20;99.90
5059;DHT22;2548;52.050;11.036;2022-09-09T15:36:33;24.10;99.90
5059;DHT22;2548;52.050;11.036;2022-09-09T15:39:04;24.20;99.90
5059;DHT22;2548;52.050;11.036;2022-09-09T15:41:32;24.10;99.90
5059;DHT22;2548;52.050;11.036;2022-09-09T15:43:59;23.90;99.90
5059;DHT22;2548;52.050;11.036;2022-09-09T15:46:30;23.70;99.90
5059;DHT22;2548;52.050;11.036;2022-09-09T15:49:02;23.50;99.90
5059;DHT22;2548;52.050;11.036;2022-09-09T15:51:30;23.40;99.90
5059;DHT22;2548;52.050;11.036;2022-09-09T15:53:59;23.20;99.90
5059;DHT22;2548;52.050;11.036;2022-09-09T15:56:29;23.00;99.90
5059;DHT22;2548;52.050;11.036;2022-09-09T15:58:58;22.80;99.90
5059;DHT22;2548;52.050;11.036;2022-09-09T16:01:26;22.70;99.90
5059;DHT22;2548;52.050;11.036;2022-09-09T16:03:54;22.70;99.90
5059;DHT22;2548;52.050;11.036;2022-09-09T16:06:23;22.80;99.90
5059;DHT22;2548;52.050;11.036;2022-09-09T16:08:52;22.80;99.90
5059;DHT22;2548;52.050;11.036;2022-09-09T16:11:22;22.90;99.90
5059;DHT22;2548;52.050;11.036;2022-09-09T16:13:52;22.90;99.90